EGNX/EMA METAR and TAF weather

Enter ICAO airport designator
Station Type Date Time Source
EGNX METAR 2019/02/23 17:50 UTC NOAA

EGNX 231750Z 14006KT 8000 NSC 12/09 Q1032


Station Type Date Time Source
EGNX Decoded METAR 2019/02/23 17:50 UTC NOAA

East Midlands, United Kingdom (EGNX) 52-50N 001-20W
Feb 23, 2019 - 12:50 PM EST / 2019.02.23 1750 UTC
Wind: from the SE (140 degrees) at 7 MPH (6 KT):0
Visibility: 4 mile(s):0
Temperature: 53 F (12 C)
Dew Point: 48 F (9 C)
Relative Humidity: 81%
Pressure (altimeter): 30.47 in. Hg (1032 hPa)
ob: EGNX 231750Z 14006KT 8000 NSC 12/09 Q1032
cycle: 18

Station Type Date Time Source
EGNX TAF 2019/02/23 18:06 UTC NOAA

TAF EGNX 231656Z 2318/2418 17006KT 9000 NSC PROB30
TEMPO 2318/2321 CAVOK
BECMG 2321/2324 4500 BR
BECMG 2403/2406 1400 BKN002 PROB40 2403/2411 0300 FG VV///
BECMG 2410/2413 6000 NSW NSC
BECMG 2413/2416 CAVOK


Example: see airport list